sensor_id;sensor_type;location;lat;lon;timestamp;P1;durP1;ratioP1;P2;durP2;ratioP2
65757;SDS011;52495;52.208;5.158;2024-03-02T00:01:31;4.68;;;1.45;;
65757;SDS011;52495;52.208;5.158;2024-03-02T00:03:58;2.22;;;1.25;;
65757;SDS011;52495;52.208;5.158;2024-03-02T00:06:25;4.15;;;1.60;;
65757;SDS011;52495;52.208;5.158;2024-03-02T00:08:56;1.88;;;1.45;;
65757;SDS011;52495;52.208;5.158;2024-03-02T00:11:24;3.00;;;1.50;;
65757;SDS011;52495;52.208;5.158;2024-03-02T00:13:52;4.88;;;1.42;;
65757;SDS011;52495;52.208;5.158;2024-03-02T00:16:19;4.43;;;2.00;;
65757;SDS011;52495;52.208;5.158;2024-03-02T00:18:47;2.75;;;1.48;;
65757;SDS011;52495;52.208;5.158;2024-03-02T00:21:14;2.63;;;1.70;;
65757;SDS011;52495;52.208;5.158;2024-03-02T00:23:43;3.75;;;1.75;;
65757;SDS011;52495;52.208;5.158;2024-03-02T00:28:44;3.42;;;1.10;;
65757;SDS011;52495;52.208;5.158;2024-03-02T00:31:11;1.20;;;0.70;;
65757;SDS011;52495;52.208;5.158;2024-03-02T00:33:40;1.67;;;0.90;;
65757;SDS011;52495;52.208;5.158;2024-03-02T00:36:08;0.50;;;0.40;;
65757;SDS011;52495;52.208;5.158;2024-03-02T00:38:41;0.65;;;0.43;;
65757;SDS011;52495;52.208;5.158;2024-03-02T00:41:15;0.73;;;0.40;;
65757;SDS011;52495;52.208;5.158;2024-03-02T00:43:45;0.88;;;0.60;;
65757;SDS011;52495;52.208;5.158;2024-03-02T00:46:17;0.40;;;0.40;;
65757;SDS011;52495;52.208;5.158;2024-03-02T00:48:48;1.40;;;0.50;;
65757;SDS011;52495;52.208;5.158;2024-03-02T00:51:19;0.40;;;0.40;;
65757;SDS011;52495;52.208;5.158;2024-03-02T00:53:46;0.65;;;0.50;;
65757;SDS011;52495;52.208;5.158;2024-03-02T00:56:15;0.60;;;0.40;;
65757;SDS011;52495;52.208;5.158;2024-03-02T00:58:42;0.52;;;0.50;;
65757;SDS011;52495;52.208;5.158;2024-03-02T01:01:09;1.35;;;0.50;;
65757;SDS011;52495;52.208;5.158;2024-03-02T01:03:36;0.50;;;0.40;;
65757;SDS011;52495;52.208;5.158;2024-03-02T01:06:04;0.40;;;0.40;;
65757;SDS011;52495;52.208;5.158;2024-03-02T01:08:32;0.43;;;0.43;;
65757;SDS011;52495;52.208;5.158;2024-03-02T01:11:00;0.73;;;0.52;;
65757;SDS011;52495;52.208;5.158;2024-03-02T01:13:28;0.98;;;0.65;;
65757;SDS011;52495;52.208;5.158;2024-03-02T01:15:55;0.40;;;0.40;;
65757;SDS011;52495;52.208;5.158;2024-03-02T01:18:22;0.85;;;0.35;;
65757;SDS011;52495;52.208;5.158;2024-03-02T01:20:49;0.65;;;0.55;;
65757;SDS011;52495;52.208;5.158;2024-03-02T01:23:17;0.85;;;0.60;;
65757;SDS011;52495;52.208;5.158;2024-03-02T01:25:44;0.70;;;0.60;;
65757;SDS011;52495;52.208;5.158;2024-03-02T01:28:11;0.95;;;0.50;;
65757;SDS011;52495;52.208;5.158;2024-03-02T01:30:40;0.40;;;0.40;;
65757;SDS011;52495;52.208;5.158;2024-03-02T01:33:07;1.88;;;0.70;;
65757;SDS011;52495;52.208;5.158;2024-03-02T01:35:33;0.50;;;0.50;;
65757;SDS011;52495;52.208;5.158;2024-03-02T01:38:01;0.82;;;0.70;;
65757;SDS011;52495;52.208;5.158;2024-03-02T01:40:28;0.88;;;0.52;;
65757;SDS011;52495;52.208;5.158;2024-03-02T01:42:55;1.05;;;0.57;;
65757;SDS011;52495;52.208;5.158;2024-03-02T01:45:23;0.60;;;0.60;;
65757;SDS011;52495;52.208;5.158;2024-03-02T01:47:51;0.60;;;0.60;;
65757;SDS011;52495;52.208;5.158;2024-03-02T01:50:24;1.05;;;0.68;;
65757;SDS011;52495;52.208;5.158;2024-03-02T01:52:52;0.82;;;0.70;;
65757;SDS011;52495;52.208;5.158;2024-03-02T01:55:19;0.50;;;0.50;;
65757;SDS011;52495;52.208;5.158;2024-03-02T01:57:46;1.20;;;0.80;;
65757;SDS011;52495;52.208;5.158;2024-03-02T02:00:14;0.90;;;0.50;;
65757;SDS011;52495;52.208;5.158;2024-03-02T02:02:41;0.80;;;0.50;;
65757;SDS011;52495;52.208;5.158;2024-03-02T02:05:10;0.98;;;0.60;;
65757;SDS011;52495;52.208;5.158;2024-03-02T02:07:37;1.45;;;0.70;;
65757;SDS011;52495;52.208;5.158;2024-03-02T02:10:04;0.68;;;0.60;;
65757;SDS011;52495;52.208;5.158;2024-03-02T02:12:31;1.58;;;0.95;;
65757;SDS011;52495;52.208;5.158;2024-03-02T02:14:58;1.08;;;0.70;;
65757;SDS011;52495;52.208;5.158;2024-03-02T02:17:25;0.63;;;0.63;;
65757;SDS011;52495;52.208;5.158;2024-03-02T02:19:52;1.10;;;0.70;;
65757;SDS011;52495;52.208;5.158;2024-03-02T02:22:20;0.95;;;0.70;;
65757;SDS011;52495;52.208;5.158;2024-03-02T02:24:47;1.30;;;0.70;;
65757;SDS011;52495;52.208;5.158;2024-03-02T02:27:14;0.70;;;0.57;;
65757;SDS011;52495;52.208;5.158;2024-03-02T02:29:40;1.05;;;0.75;;
65757;SDS011;52495;52.208;5.158;2024-03-02T02:32:10;0.93;;;0.50;;
65757;SDS011;52495;52.208;5.158;2024-03-02T02:34:37;1.08;;;0.50;;
65757;SDS011;52495;52.208;5.158;2024-03-02T02:37:04;1.75;;;0.70;;
65757;SDS011;52495;52.208;5.158;2024-03-02T02:39:32;0.65;;;0.65;;
65757;SDS011;52495;52.208;5.158;2024-03-02T02:41:59;0.95;;;0.70;;
65757;SDS011;52495;52.208;5.158;2024-03-02T02:44:28;1.15;;;0.70;;
65757;SDS011;52495;52.208;5.158;2024-03-02T02:46:54;0.68;;;0.68;;
65757;SDS011;52495;52.208;5.158;2024-03-02T02:49:21;1.90;;;0.80;;
65757;SDS011;52495;52.208;5.158;2024-03-02T02:51:48;1.67;;;0.85;;
65757;SDS011;52495;52.208;5.158;2024-03-02T02:54:15;0.90;;;0.73;;
65757;SDS011;52495;52.208;5.158;2024-03-02T02:56:43;1.23;;;1.13;;
65757;SDS011;52495;52.208;5.158;2024-03-02T02:59:10;1.17;;;0.80;;
65757;SDS011;52495;52.208;5.158;2024-03-02T03:01:37;0.77;;;0.68;;
65757;SDS011;52495;52.208;5.158;2024-03-02T03:04:04;0.90;;;0.70;;
65757;SDS011;52495;52.208;5.158;2024-03-02T03:06:31;0.70;;;0.70;;
65757;SDS011;52495;52.208;5.158;2024-03-02T03:08:57;1.02;;;0.63;;
65757;SDS011;52495;52.208;5.158;2024-03-02T03:11:24;2.78;;;0.68;;
65757;SDS011;52495;52.208;5.158;2024-03-02T03:13:53;2.40;;;0.80;;
65757;SDS011;52495;52.208;5.158;2024-03-02T03:16:20;2.38;;;0.95;;
65757;SDS011;52495;52.208;5.158;2024-03-02T03:18:47;1.48;;;0.80;;
65757;SDS011;52495;52.208;5.158;2024-03-02T03:21:16;1.10;;;0.90;;
65757;SDS011;52495;52.208;5.158;2024-03-02T03:23:43;1.38;;;0.90;;
65757;SDS011;52495;52.208;5.158;2024-03-02T03:26:10;0.60;;;0.55;;
65757;SDS011;52495;52.208;5.158;2024-03-02T03:28:37;0.75;;;0.60;;
65757;SDS011;52495;52.208;5.158;2024-03-02T03:31:05;0.70;;;0.68;;
65757;SDS011;52495;52.208;5.158;2024-03-02T03:33:32;0.82;;;0.70;;
65757;SDS011;52495;52.208;5.158;2024-03-02T03:35:59;0.80;;;0.60;;
65757;SDS011;52495;52.208;5.158;2024-03-02T03:38:27;2.17;;;0.75;;
65757;SDS011;52495;52.208;5.158;2024-03-02T03:40:54;1.30;;;0.77;;
65757;SDS011;52495;52.208;5.158;2024-03-02T03:43:20;0.52;;;0.52;;
65757;SDS011;52495;52.208;5.158;2024-03-02T03:45:47;0.68;;;0.65;;
65757;SDS011;52495;52.208;5.158;2024-03-02T03:48:15;0.82;;;0.63;;
65757;SDS011;52495;52.208;5.158;2024-03-02T03:50:42;1.85;;;1.00;;
65757;SDS011;52495;52.208;5.158;2024-03-02T03:53:09;2.13;;;0.80;;
65757;SDS011;52495;52.208;5.158;2024-03-02T03:55:36;1.35;;;0.68;;
65757;SDS011;52495;52.208;5.158;2024-03-02T03:58:03;1.52;;;0.60;;
65757;SDS011;52495;52.208;5.158;2024-03-02T04:00:30;0.57;;;0.52;;
65757;SDS011;52495;52.208;5.158;2024-03-02T04:02:56;1.10;;;0.80;;
65757;SDS011;52495;52.208;5.158;2024-03-02T04:05:24;0.52;;;0.52;;
65757;SDS011;52495;52.208;5.158;2024-03-02T04:07:51;0.90;;;0.50;;
65757;SDS011;52495;52.208;5.158;2024-03-02T04:10:18;0.60;;;0.60;;
65757;SDS011;52495;52.208;5.158;2024-03-02T04:12:46;1.98;;;0.60;;
65757;SDS011;52495;52.208;5.158;2024-03-02T04:15:12;2.05;;;0.60;;
65757;SDS011;52495;52.208;5.158;2024-03-02T04:17:39;0.80;;;0.60;;
65757;SDS011;52495;52.208;5.158;2024-03-02T04:20:06;0.93;;;0.70;;
65757;SDS011;52495;52.208;5.158;2024-03-02T04:22:35;1.23;;;0.63;;
65757;SDS011;52495;52.208;5.158;2024-03-02T04:25:02;1.00;;;0.75;;
65757;SDS011;52495;52.208;5.158;2024-03-02T04:27:30;0.43;;;0.43;;
65757;SDS011;52495;52.208;5.158;2024-03-02T04:29:58;1.90;;;0.60;;
65757;SDS011;52495;52.208;5.158;2024-03-02T04:32:25;1.00;;;0.65;;
65757;SDS011;52495;52.208;5.158;2024-03-02T04:34:52;1.65;;;0.70;;
65757;SDS011;52495;52.208;5.158;2024-03-02T04:37:19;0.68;;;0.52;;
65757;SDS011;52495;52.208;5.158;2024-03-02T04:39:48;2.88;;;0.77;;
65757;SDS011;52495;52.208;5.158;2024-03-02T04:42:14;1.52;;;0.70;;
65757;SDS011;52495;52.208;5.158;2024-03-02T04:44:41;1.65;;;0.70;;
65757;SDS011;52495;52.208;5.158;2024-03-02T04:47:08;1.33;;;0.65;;
65757;SDS011;52495;52.208;5.158;2024-03-02T04:49:34;1.58;;;0.70;;
65757;SDS011;52495;52.208;5.158;2024-03-02T04:52:01;1.33;;;0.55;;
65757;SDS011;52495;52.208;5.158;2024-03-02T04:54:28;1.40;;;0.73;;
65757;SDS011;52495;52.208;5.158;2024-03-02T04:56:56;1.08;;;0.98;;
65757;SDS011;52495;52.208;5.158;2024-03-02T04:59:23;3.05;;;0.70;;
65757;SDS011;52495;52.208;5.158;2024-03-02T05:01:50;1.33;;;0.70;;
65757;SDS011;52495;52.208;5.158;2024-03-02T05:04:17;1.15;;;0.80;;
65757;SDS011;52495;52.208;5.158;2024-03-02T05:06:44;3.17;;;0.65;;
65757;SDS011;52495;52.208;5.158;2024-03-02T05:11:43;1.23;;;0.80;;
65757;SDS011;52495;52.208;5.158;2024-03-02T05:14:37;2.05;;;0.60;;
65757;SDS011;52495;52.208;5.158;2024-03-02T05:17:04;0.73;;;0.65;;
65757;SDS011;52495;52.208;5.158;2024-03-02T05:19:30;0.63;;;0.50;;
65757;SDS011;52495;52.208;5.158;2024-03-02T05:21:57;1.75;;;0.80;;
65757;SDS011;52495;52.208;5.158;2024-03-02T05:24:24;2.30;;;0.60;;
65757;SDS011;52495;52.208;5.158;2024-03-02T05:26:52;1.13;;;0.65;;
65757;SDS011;52495;52.208;5.158;2024-03-02T05:29:19;1.17;;;0.60;;
65757;SDS011;52495;52.208;5.158;2024-03-02T05:31:47;0.85;;;0.52;;
65757;SDS011;52495;52.208;5.158;2024-03-02T05:34:14;1.63;;;0.77;;
65757;SDS011;52495;52.208;5.158;2024-03-02T05:36:41;1.75;;;0.70;;
65757;SDS011;52495;52.208;5.158;2024-03-02T05:39:07;0.75;;;0.60;;
65757;SDS011;52495;52.208;5.158;2024-03-02T05:41:35;1.38;;;0.52;;
65757;SDS011;52495;52.208;5.158;2024-03-02T05:44:03;2.70;;;0.80;;
65757;SDS011;52495;52.208;5.158;2024-03-02T05:46:30;1.65;;;0.60;;
65757;SDS011;52495;52.208;5.158;2024-03-02T05:48:59;1.60;;;0.73;;
65757;SDS011;52495;52.208;5.158;2024-03-02T05:51:26;2.10;;;0.82;;
65757;SDS011;52495;52.208;5.158;2024-03-02T05:53:52;1.20;;;0.63;;
65757;SDS011;52495;52.208;5.158;2024-03-02T05:56:19;2.47;;;0.90;;
65757;SDS011;52495;52.208;5.158;2024-03-02T05:58:46;2.92;;;0.98;;
65757;SDS011;52495;52.208;5.158;2024-03-02T06:01:23;1.70;;;0.90;;
65757;SDS011;52495;52.208;5.158;2024-03-02T06:03:53;1.35;;;0.90;;
65757;SDS011;52495;52.208;5.158;2024-03-02T06:06:22;0.95;;;0.50;;
65757;SDS011;52495;52.208;5.158;2024-03-02T06:08:49;2.85;;;0.60;;
65757;SDS011;52495;52.208;5.158;2024-03-02T06:11:16;1.08;;;0.52;;
65757;SDS011;52495;52.208;5.158;2024-03-02T06:13:43;2.53;;;0.80;;
65757;SDS011;52495;52.208;5.158;2024-03-02T06:16:10;2.58;;;1.00;;
65757;SDS011;52495;52.208;5.158;2024-03-02T06:18:37;2.00;;;0.80;;
65757;SDS011;52495;52.208;5.158;2024-03-02T06:21:04;2.65;;;0.80;;
65757;SDS011;52495;52.208;5.158;2024-03-02T06:23:32;2.85;;;0.70;;
65757;SDS011;52495;52.208;5.158;2024-03-02T06:26:00;0.75;;;0.65;;
65757;SDS011;52495;52.208;5.158;2024-03-02T06:28:27;1.27;;;0.88;;
65757;SDS011;52495;52.208;5.158;2024-03-02T06:30:54;2.97;;;0.90;;
65757;SDS011;52495;52.208;5.158;2024-03-02T06:33:21;3.60;;;1.02;;
65757;SDS011;52495;52.208;5.158;2024-03-02T06:35:47;1.13;;;0.63;;
65757;SDS011;52495;52.208;5.158;2024-03-02T06:38:15;2.28;;;0.80;;
65757;SDS011;52495;52.208;5.158;2024-03-02T06:40:43;1.25;;;0.60;;
65757;SDS011;52495;52.208;5.158;2024-03-02T06:43:10;2.15;;;0.77;;
65757;SDS011;52495;52.208;5.158;2024-03-02T06:45:37;1.48;;;0.80;;
65757;SDS011;52495;52.208;5.158;2024-03-02T06:48:04;2.15;;;0.90;;
65757;SDS011;52495;52.208;5.158;2024-03-02T06:50:31;2.10;;;0.60;;
65757;SDS011;52495;52.208;5.158;2024-03-02T06:52:58;2.55;;;0.80;;
65757;SDS011;52495;52.208;5.158;2024-03-02T06:55:24;2.28;;;0.80;;
65757;SDS011;52495;52.208;5.158;2024-03-02T06:57:52;2.40;;;0.98;;
65757;SDS011;52495;52.208;5.158;2024-03-02T07:00:19;3.08;;;0.70;;
65757;SDS011;52495;52.208;5.158;2024-03-02T07:02:46;1.48;;;0.75;;
65757;SDS011;52495;52.208;5.158;2024-03-02T07:05:13;1.42;;;0.70;;
65757;SDS011;52495;52.208;5.158;2024-03-02T07:07:40;1.83;;;0.68;;
65757;SDS011;52495;52.208;5.158;2024-03-02T07:10:07;1.42;;;0.65;;
65757;SDS011;52495;52.208;5.158;2024-03-02T07:12:34;1.65;;;0.88;;
65757;SDS011;52495;52.208;5.158;2024-03-02T07:15:02;2.70;;;0.60;;
65757;SDS011;52495;52.208;5.158;2024-03-02T07:17:50;1.40;;;0.80;;
65757;SDS011;52495;52.208;5.158;2024-03-02T07:20:17;3.70;;;0.70;;
65757;SDS011;52495;52.208;5.158;2024-03-02T07:22:43;3.55;;;0.80;;
65757;SDS011;52495;52.208;5.158;2024-03-02T07:25:10;1.98;;;0.80;;
65757;SDS011;52495;52.208;5.158;2024-03-02T07:27:37;2.50;;;0.80;;
65757;SDS011;52495;52.208;5.158;2024-03-02T07:30:06;1.42;;;0.90;;
65757;SDS011;52495;52.208;5.158;2024-03-02T07:32:33;3.45;;;1.33;;
65757;SDS011;52495;52.208;5.158;2024-03-02T07:35:00;1.80;;;0.85;;
65757;SDS011;52495;52.208;5.158;2024-03-02T07:37:28;2.83;;;0.95;;
65757;SDS011;52495;52.208;5.158;2024-03-02T07:39:55;1.00;;;0.68;;
65757;SDS011;52495;52.208;5.158;2024-03-02T07:42:22;2.22;;;0.70;;
65757;SDS011;52495;52.208;5.158;2024-03-02T07:44:49;4.13;;;0.75;;
65757;SDS011;52495;52.208;5.158;2024-03-02T07:47:17;1.98;;;0.95;;
65757;SDS011;52495;52.208;5.158;2024-03-02T07:52:31;3.33;;;0.88;;
65757;SDS011;52495;52.208;5.158;2024-03-02T07:54:58;1.58;;;0.60;;
65757;SDS011;52495;52.208;5.158;2024-03-02T07:57:28;3.05;;;0.98;;
65757;SDS011;52495;52.208;5.158;2024-03-02T07:59:55;1.30;;;0.60;;
65757;SDS011;52495;52.208;5.158;2024-03-02T08:02:23;2.70;;;0.90;;
65757;SDS011;52495;52.208;5.158;2024-03-02T08:04:49;1.65;;;0.77;;
65757;SDS011;52495;52.208;5.158;2024-03-02T08:07:16;5.15;;;3.75;;
65757;SDS011;52495;52.208;5.158;2024-03-02T08:09:43;4.72;;;1.73;;
65757;SDS011;52495;52.208;5.158;2024-03-02T08:12:11;3.95;;;1.10;;
65757;SDS011;52495;52.208;5.158;2024-03-02T08:14:37;4.20;;;0.98;;
65757;SDS011;52495;52.208;5.158;2024-03-02T08:17:04;5.05;;;1.05;;
65757;SDS011;52495;52.208;5.158;2024-03-02T08:19:36;2.78;;;0.73;;
65757;SDS011;52495;52.208;5.158;2024-03-02T08:22:03;2.55;;;1.25;;
65757;SDS011;52495;52.208;5.158;2024-03-02T08:24:30;1.98;;;0.68;;
65757;SDS011;52495;52.208;5.158;2024-03-02T08:26:57;0.75;;;0.57;;
65757;SDS011;52495;52.208;5.158;2024-03-02T08:29:24;3.15;;;0.95;;
65757;SDS011;52495;52.208;5.158;2024-03-02T08:31:51;2.90;;;1.00;;
65757;SDS011;52495;52.208;5.158;2024-03-02T08:34:17;3.90;;;1.17;;
65757;SDS011;52495;52.208;5.158;2024-03-02T08:36:46;3.70;;;0.95;;
65757;SDS011;52495;52.208;5.158;2024-03-02T08:39:13;3.13;;;0.77;;
65757;SDS011;52495;52.208;5.158;2024-03-02T08:41:40;4.88;;;1.00;;
65757;SDS011;52495;52.208;5.158;2024-03-02T08:44:08;3.05;;;0.90;;
65757;SDS011;52495;52.208;5.158;2024-03-02T08:46:35;5.40;;;1.10;;
65757;SDS011;52495;52.208;5.158;2024-03-02T08:49:02;2.60;;;0.95;;
65757;SDS011;52495;52.208;5.158;2024-03-02T08:51:29;4.05;;;0.90;;
65757;SDS011;52495;52.208;5.158;2024-03-02T08:53:58;1.38;;;0.70;;
65757;SDS011;52495;52.208;5.158;2024-03-02T08:56:25;3.92;;;1.02;;
65757;SDS011;52495;52.208;5.158;2024-03-02T08:58:52;6.35;;;1.30;;
65757;SDS011;52495;52.208;5.158;2024-03-02T09:01:19;3.78;;;0.90;;
65757;SDS011;52495;52.208;5.158;2024-03-02T09:03:46;6.18;;;1.08;;
65757;SDS011;52495;52.208;5.158;2024-03-02T09:06:14;2.72;;;0.85;;
65757;SDS011;52495;52.208;5.158;2024-03-02T09:08:42;2.50;;;1.00;;
65757;SDS011;52495;52.208;5.158;2024-03-02T09:11:10;4.47;;;1.40;;
65757;SDS011;52495;52.208;5.158;2024-03-02T09:13:37;2.67;;;1.25;;
65757;SDS011;52495;52.208;5.158;2024-03-02T09:16:04;3.35;;;1.05;;
65757;SDS011;52495;52.208;5.158;2024-03-02T09:18:31;4.85;;;1.17;;
65757;SDS011;52495;52.208;5.158;2024-03-02T09:20:58;1.77;;;0.93;;
65757;SDS011;52495;52.208;5.158;2024-03-02T09:23:25;3.65;;;0.98;;
65757;SDS011;52495;52.208;5.158;2024-03-02T09:25:51;3.55;;;1.10;;
65757;SDS011;52495;52.208;5.158;2024-03-02T09:28:20;2.40;;;0.80;;
65757;SDS011;52495;52.208;5.158;2024-03-02T09:30:47;5.32;;;1.40;;
65757;SDS011;52495;52.208;5.158;2024-03-02T09:33:13;2.92;;;0.98;;
65757;SDS011;52495;52.208;5.158;2024-03-02T09:35:40;3.45;;;1.42;;
65757;SDS011;52495;52.208;5.158;2024-03-02T09:38:07;7.00;;;1.48;;
65757;SDS011;52495;52.208;5.158;2024-03-02T09:40:34;5.13;;;1.35;;
65757;SDS011;52495;52.208;5.158;2024-03-02T09:43:01;4.07;;;1.48;;
65757;SDS011;52495;52.208;5.158;2024-03-02T09:45:30;3.55;;;0.90;;
65757;SDS011;52495;52.208;5.158;2024-03-02T09:47:57;5.93;;;1.42;;
65757;SDS011;52495;52.208;5.158;2024-03-02T09:50:23;4.03;;;0.90;;
65757;SDS011;52495;52.208;5.158;2024-03-02T09:52:50;8.23;;;1.40;;
65757;SDS011;52495;52.208;5.158;2024-03-02T09:55:19;5.18;;;1.10;;
65757;SDS011;52495;52.208;5.158;2024-03-02T09:57:47;4.65;;;1.48;;
65757;SDS011;52495;52.208;5.158;2024-03-02T10:00:15;6.00;;;1.52;;
65757;SDS011;52495;52.208;5.158;2024-03-02T10:02:43;4.30;;;1.00;;
65757;SDS011;52495;52.208;5.158;2024-03-02T10:05:22;3.80;;;1.25;;
65757;SDS011;52495;52.208;5.158;2024-03-02T10:07:53;3.75;;;1.55;;
65757;SDS011;52495;52.208;5.158;2024-03-02T10:10:26;4.68;;;1.15;;
65757;SDS011;52495;52.208;5.158;2024-03-02T10:13:03;2.90;;;1.05;;
65757;SDS011;52495;52.208;5.158;2024-03-02T10:15:31;5.00;;;1.55;;
65757;SDS011;52495;52.208;5.158;2024-03-02T10:18:00;4.75;;;1.00;;
65757;SDS011;52495;52.208;5.158;2024-03-02T10:20:27;3.67;;;1.48;;
65757;SDS011;52495;52.208;5.158;2024-03-02T10:22:55;5.65;;;1.08;;
65757;SDS011;52495;52.208;5.158;2024-03-02T10:25:28;9.27;;;1.55;;
65757;SDS011;52495;52.208;5.158;2024-03-02T10:27:57;6.45;;;1.63;;
65757;SDS011;52495;52.208;5.158;2024-03-02T10:30:24;4.18;;;1.10;;
65757;SDS011;52495;52.208;5.158;2024-03-02T10:32:52;3.42;;;1.35;;
65757;SDS011;52495;52.208;5.158;2024-03-02T10:35:21;5.10;;;1.10;;
65757;SDS011;52495;52.208;5.158;2024-03-02T10:37:51;5.22;;;1.20;;
65757;SDS011;52495;52.208;5.158;2024-03-02T10:40:19;4.35;;;1.13;;
65757;SDS011;52495;52.208;5.158;2024-03-02T10:42:48;4.40;;;1.30;;
65757;SDS011;52495;52.208;5.158;2024-03-02T10:45:16;5.88;;;1.27;;
65757;SDS011;52495;52.208;5.158;2024-03-02T10:47:43;2.35;;;1.00;;
65757;SDS011;52495;52.208;5.158;2024-03-02T10:50:10;4.30;;;1.48;;
65757;SDS011;52495;52.208;5.158;2024-03-02T10:52:40;3.80;;;1.27;;
65757;SDS011;52495;52.208;5.158;2024-03-02T10:55:08;7.45;;;1.50;;
65757;SDS011;52495;52.208;5.158;2024-03-02T10:57:40;2.33;;;0.80;;
65757;SDS011;52495;52.208;5.158;2024-03-02T11:00:11;6.07;;;1.58;;
65757;SDS011;52495;52.208;5.158;2024-03-02T11:02:45;3.85;;;1.10;;
65757;SDS011;52495;52.208;5.158;2024-03-02T11:05:16;5.68;;;1.25;;
65757;SDS011;52495;52.208;5.158;2024-03-02T11:07:52;5.68;;;1.45;;
65757;SDS011;52495;52.208;5.158;2024-03-02T11:10:23;4.75;;;1.08;;
65757;SDS011;52495;52.208;5.158;2024-03-02T11:12:53;6.93;;;1.08;;
65757;SDS011;52495;52.208;5.158;2024-03-02T11:15:25;7.03;;;1.20;;
65757;SDS011;52495;52.208;5.158;2024-03-02T11:17:54;2.38;;;1.05;;
65757;SDS011;52495;52.208;5.158;2024-03-02T11:20:22;4.88;;;1.52;;
65757;SDS011;52495;52.208;5.158;2024-03-02T11:22:50;4.53;;;1.40;;
65757;SDS011;52495;52.208;5.158;2024-03-02T11:25:25;5.75;;;1.50;;
65757;SDS011;52495;52.208;5.158;2024-03-02T11:27:59;3.72;;;0.98;;
65757;SDS011;52495;52.208;5.158;2024-03-02T11:33:22;4.50;;;1.15;;
65757;SDS011;52495;52.208;5.158;2024-03-02T11:35:52;2.35;;;1.05;;
65757;SDS011;52495;52.208;5.158;2024-03-02T11:38:19;5.05;;;1.05;;
65757;SDS011;52495;52.208;5.158;2024-03-02T11:40:47;3.55;;;1.20;;
65757;SDS011;52495;52.208;5.158;2024-03-02T11:43:14;4.40;;;0.90;;
65757;SDS011;52495;52.208;5.158;2024-03-02T11:45:41;2.92;;;1.10;;
65757;SDS011;52495;52.208;5.158;2024-03-02T11:48:11;3.85;;;1.10;;
65757;SDS011;52495;52.208;5.158;2024-03-02T11:50:40;4.57;;;1.10;;
65757;SDS011;52495;52.208;5.158;2024-03-02T11:53:09;4.75;;;1.13;;
65757;SDS011;52495;52.208;5.158;2024-03-02T11:55:38;5.80;;;1.20;;
65757;SDS011;52495;52.208;5.158;2024-03-02T11:58:07;3.13;;;1.02;;
65757;SDS011;52495;52.208;5.158;2024-03-02T12:00:34;2.95;;;1.17;;
65757;SDS011;52495;52.208;5.158;2024-03-02T12:03:01;1.85;;;0.98;;
65757;SDS011;52495;52.208;5.158;2024-03-02T12:05:30;2.55;;;1.00;;
65757;SDS011;52495;52.208;5.158;2024-03-02T12:07:57;2.33;;;0.90;;
65757;SDS011;52495;52.208;5.158;2024-03-02T12:10:25;3.33;;;1.60;;
65757;SDS011;52495;52.208;5.158;2024-03-02T12:12:55;4.63;;;1.20;;
65757;SDS011;52495;52.208;5.158;2024-03-02T12:15:25;3.50;;;0.90;;
65757;SDS011;52495;52.208;5.158;2024-03-02T12:17:53;4.82;;;0.88;;
65757;SDS011;52495;52.208;5.158;2024-03-02T12:20:20;5.47;;;1.17;;
65757;SDS011;52495;52.208;5.158;2024-03-02T12:22:49;4.97;;;1.00;;
65757;SDS011;52495;52.208;5.158;2024-03-02T12:25:17;3.58;;;1.23;;
65757;SDS011;52495;52.208;5.158;2024-03-02T12:27:44;2.17;;;0.77;;
65757;SDS011;52495;52.208;5.158;2024-03-02T12:30:12;1.73;;;0.90;;
65757;SDS011;52495;52.208;5.158;2024-03-02T12:32:40;2.42;;;0.90;;
65757;SDS011;52495;52.208;5.158;2024-03-02T12:35:08;3.38;;;1.17;;
65757;SDS011;52495;52.208;5.158;2024-03-02T12:37:43;2.08;;;0.98;;
65757;SDS011;52495;52.208;5.158;2024-03-02T12:40:10;3.75;;;1.08;;
65757;SDS011;52495;52.208;5.158;2024-03-02T12:42:37;2.75;;;1.15;;
65757;SDS011;52495;52.208;5.158;2024-03-02T12:45:05;2.78;;;0.93;;
65757;SDS011;52495;52.208;5.158;2024-03-02T12:47:33;3.00;;;1.25;;
65757;SDS011;52495;52.208;5.158;2024-03-02T12:50:02;4.13;;;0.95;;
65757;SDS011;52495;52.208;5.158;2024-03-02T12:52:29;2.10;;;0.73;;
65757;SDS011;52495;52.208;5.158;2024-03-02T12:54:58;2.08;;;0.77;;
65757;SDS011;52495;52.208;5.158;2024-03-02T12:57:25;2.80;;;0.80;;
65757;SDS011;52495;52.208;5.158;2024-03-02T12:59:56;4.57;;;1.08;;
65757;SDS011;52495;52.208;5.158;2024-03-02T13:02:27;3.60;;;1.02;;
65757;SDS011;52495;52.208;5.158;2024-03-02T13:04:54;2.88;;;1.27;;
65757;SDS011;52495;52.208;5.158;2024-03-02T13:07:23;2.72;;;0.80;;
65757;SDS011;52495;52.208;5.158;2024-03-02T13:09:50;4.20;;;1.20;;
65757;SDS011;52495;52.208;5.158;2024-03-02T13:12:17;2.75;;;1.23;;
65757;SDS011;52495;52.208;5.158;2024-03-02T13:14:47;4.38;;;1.27;;
65757;SDS011;52495;52.208;5.158;2024-03-02T13:17:15;3.65;;;1.13;;
65757;SDS011;52495;52.208;5.158;2024-03-02T13:19:43;1.58;;;0.73;;
65757;SDS011;52495;52.208;5.158;2024-03-02T13:22:18;3.03;;;0.90;;
65757;SDS011;52495;52.208;5.158;2024-03-02T13:24:46;5.40;;;1.20;;
65757;SDS011;52495;52.208;5.158;2024-03-02T13:27:13;3.00;;;1.10;;
65757;SDS011;52495;52.208;5.158;2024-03-02T13:29:40;3.78;;;0.80;;
65757;SDS011;52495;52.208;5.158;2024-03-02T13:32:07;4.53;;;1.33;;
65757;SDS011;52495;52.208;5.158;2024-03-02T13:34:34;2.75;;;1.30;;
65757;SDS011;52495;52.208;5.158;2024-03-02T13:37:02;3.22;;;1.25;;
65757;SDS011;52495;52.208;5.158;2024-03-02T13:39:30;5.18;;;1.17;;
65757;SDS011;52495;52.208;5.158;2024-03-02T13:41:59;3.35;;;0.98;;
65757;SDS011;52495;52.208;5.158;2024-03-02T13:44:29;4.57;;;1.10;;
65757;SDS011;52495;52.208;5.158;2024-03-02T13:46:56;1.75;;;0.88;;
65757;SDS011;52495;52.208;5.158;2024-03-02T13:49:23;3.30;;;0.85;;
65757;SDS011;52495;52.208;5.158;2024-03-02T13:51:53;3.22;;;1.00;;
65757;SDS011;52495;52.208;5.158;2024-03-02T13:54:22;2.97;;;1.08;;
65757;SDS011;52495;52.208;5.158;2024-03-02T13:56:48;2.95;;;1.10;;
65757;SDS011;52495;52.208;5.158;2024-03-02T13:59:16;2.92;;;0.90;;
65757;SDS011;52495;52.208;5.158;2024-03-02T14:01:42;2.72;;;0.98;;
65757;SDS011;52495;52.208;5.158;2024-03-02T14:04:09;5.63;;;1.45;;
65757;SDS011;52495;52.208;5.158;2024-03-02T14:06:36;2.05;;;0.73;;
65757;SDS011;52495;52.208;5.158;2024-03-02T14:09:03;3.05;;;0.98;;
65757;SDS011;52495;52.208;5.158;2024-03-02T14:11:30;4.57;;;0.85;;
65757;SDS011;52495;52.208;5.158;2024-03-02T14:13:57;2.22;;;1.20;;
65757;SDS011;52495;52.208;5.158;2024-03-02T14:16:25;4.45;;;1.30;;
65757;SDS011;52495;52.208;5.158;2024-03-02T14:18:52;2.95;;;0.90;;
65757;SDS011;52495;52.208;5.158;2024-03-02T14:21:18;4.03;;;1.05;;
65757;SDS011;52495;52.208;5.158;2024-03-02T14:23:45;4.15;;;1.20;;
65757;SDS011;52495;52.208;5.158;2024-03-02T14:26:12;5.40;;;1.20;;
65757;SDS011;52495;52.208;5.158;2024-03-02T14:28:39;3.35;;;1.27;;
65757;SDS011;52495;52.208;5.158;2024-03-02T14:31:06;2.85;;;1.10;;
65757;SDS011;52495;52.208;5.158;2024-03-02T14:33:34;4.85;;;1.15;;
65757;SDS011;52495;52.208;5.158;2024-03-02T14:36:01;4.05;;;1.15;;
65757;SDS011;52495;52.208;5.158;2024-03-02T14:38:29;4.05;;;1.60;;
65757;SDS011;52495;52.208;5.158;2024-03-02T14:40:58;4.05;;;1.10;;
65757;SDS011;52495;52.208;5.158;2024-03-02T14:43:25;2.63;;;1.35;;
65757;SDS011;52495;52.208;5.158;2024-03-02T14:45:51;3.30;;;1.10;;
65757;SDS011;52495;52.208;5.158;2024-03-02T14:48:18;6.35;;;1.40;;
65757;SDS011;52495;52.208;5.158;2024-03-02T14:50:46;5.25;;;1.33;;
65757;SDS011;52495;52.208;5.158;2024-03-02T14:53:13;2.88;;;1.40;;
65757;SDS011;52495;52.208;5.158;2024-03-02T14:55:40;6.07;;;1.42;;
65757;SDS011;52495;52.208;5.158;2024-03-02T14:58:14;4.59;;;1.20;;
65757;SDS011;52495;52.208;5.158;2024-03-02T15:00:41;2.15;;;0.93;;
65757;SDS011;52495;52.208;5.158;2024-03-02T15:03:07;4.38;;;1.50;;